Time;durP1;ratioP1;P1;durP2;ratioP2;P2;SDS_P1;SDS_P2;PMS_P1;PMS_P2;Temp;Humidity;BMP_temperature;BMP_pressure;BME280_temperature;BME280_humidity;BME280_pressure;Samples;Min_cycle;Max_cycle;Signal;HPM_P1;HPM_P2
2022/05/26 00:01:16;;;;;;;32.20;21.10;;;;;;;;;;4994830;28;20026;-54
2022/05/26 00:03:42;;;;;;;29.42;19.92;;;;;;;;;;4983353;28;20129;-52
2022/05/26 00:06:08;;;;;;;34.53;21.92;;;;;;;;;;4997048;28;20097;-54
2022/05/26 00:08:33;;;;;;;27.75;20.20;;;;;;;;;;5000183;28;20896;-52
2022/05/26 00:10:59;;;;;;;30.20;20.75;;;;;;;;;;4998709;28;20014;-59
2022/05/26 00:13:25;;;;;;;33.70;21.95;;;;;;;;;;4998337;28;20291;-54
2022/05/26 00:15:50;;;;;;;32.28;21.42;;;;;;;;;;4999418;28;20046;-59
2022/05/26 00:18:16;;;;;;;31.98;21.40;;;;;;;;;;4997784;28;20050;-58
2022/05/26 00:20:41;;;;;;;32.42;22.33;;;;;;;;;;4997515;28;20014;-56
2022/05/26 00:23:06;;;;;;;30.03;20.67;;;;;;;;;;4999190;28;20188;-60
2022/05/26 00:25:31;;;;;;;30.58;20.90;;;;;;;;;;4999086;28;20102;-60
2022/05/26 00:27:56;;;;;;;31.73;21.23;;;;;;;;;;5000292;28;20088;-56
2022/05/26 00:30:22;;;;;;;31.97;21.10;;;;;;;;;;5000737;28;20279;-55
2022/05/26 00:32:47;;;;;;;29.80;19.85;;;;;;;;;;4990912;28;20428;-55
2022/05/26 00:35:15;;;;;;;33.03;22.17;;;;;;;;;;5000932;28;20013;-56
2022/05/26 00:37:40;;;;;;;31.70;21.02;;;;;;;;;;5013859;28;20072;-57
2022/05/26 00:40:06;;;;;;;29.88;21.58;;;;;;;;;;4999206;28;20037;-63
2022/05/26 00:42:31;;;;;;;29.95;20.20;;;;;;;;;;4987290;28;20039;-55
2022/05/26 00:44:56;;;;;;;30.80;19.95;;;;;;;;;;4997629;28;20139;-53
2022/05/26 00:47:23;;;;;;;26.77;18.60;;;;;;;;;;4994291;28;20021;-59
2022/05/26 00:49:50;;;;;;;31.15;21.33;;;;;;;;;;5001351;28;20030;-55
2022/05/26 00:52:19;;;;;;;31.20;20.08;;;;;;;;;;4999401;28;20089;-52
2022/05/26 00:54:45;;;;;;;28.38;20.17;;;;;;;;;;5000832;28;20033;-58
2022/05/26 00:57:14;;;;;;;26.13;18.88;;;;;;;;;;4991462;28;20018;-59
2022/05/26 00:59:57;;;;;;;29.00;19.83;;;;;;;;;;4981552;28;20003;-58
2022/05/26 01:02:25;;;;;;;29.35;19.73;;;;;;;;;;4983000;28;20042;-59
2022/05/26 01:04:51;;;;;;;31.08;21.17;;;;;;;;;;4997121;28;20025;-59
2022/05/26 01:07:24;;;;;;;29.05;19.95;;;;;;;;;;5005671;28;20472;-56
2022/05/26 01:09:49;;;;;;;26.70;20.33;;;;;;;;;;4993628;28;20080;-56
2022/05/26 01:12:15;;;;;;;29.77;20.05;;;;;;;;;;4998612;28;20010;-55
2022/05/26 01:14:41;;;;;;;31.03;19.87;;;;;;;;;;4997907;28;20026;-55
2022/05/26 01:17:10;;;;;;;29.73;20.77;;;;;;;;;;4995725;28;20026;-61
2022/05/26 01:19:45;;;;;;;29.55;20.60;;;;;;;;;;4997815;28;20048;-56
2022/05/26 01:22:16;;;;;;;29.00;20.38;;;;;;;;;;4999655;28;20226;-59
2022/05/26 01:25:00;;;;;;;28.90;19.70;;;;;;;;;;4997237;28;20015;-56
2022/05/26 01:27:27;;;;;;;31.08;20.27;;;;;;;;;;4997048;28;20022;-56
2022/05/26 01:30:11;;;;;;;28.65;19.75;;;;;;;;;;5014842;28;20056;-64
2022/05/26 01:32:56;;;;;;;32.47;21.05;;;;;;;;;;4997936;28;20148;-53
2022/05/26 01:35:23;;;;;;;30.65;20.75;;;;;;;;;;4997815;28;20038;-58
2022/05/26 01:37:54;;;;;;;28.20;20.60;;;;;;;;;;5002985;28;20025;-55
2022/05/26 01:40:19;;;;;;;29.88;20.17;;;;;;;;;;4998637;28;20022;-56
2022/05/26 01:43:00;;;;;;;28.40;19.60;;;;;;;;;;5001259;28;20524;-53
2022/05/26 01:45:40;;;;;;;29.50;19.20;;;;;;;;;;4999025;28;20073;-59
2022/05/26 01:48:09;;;;;;;29.98;20.45;;;;;;;;;;4997980;28;20394;-51
2022/05/26 01:50:34;;;;;;;32.67;21.02;;;;;;;;;;5012639;28;20089;-60
2022/05/26 01:53:12;;;;;;;30.73;20.07;;;;;;;;;;4983600;28;20125;-56
2022/05/26 01:55:42;;;;;;;30.05;20.85;;;;;;;;;;4995284;28;20413;-59
2022/05/26 01:58:07;;;;;;;28.38;20.20;;;;;;;;;;5011937;28;20060;-56
2022/05/26 02:00:33;;;;;;;30.73;20.30;;;;;;;;;;5000872;28;20013;-54
2022/05/26 02:03:02;;;;;;;30.67;20.30;;;;;;;;;;4999145;28;20033;-52
2022/05/26 02:05:31;;;;;;;29.95;20.65;;;;;;;;;;5006732;28;20402;-59
2022/05/26 02:08:09;;;;;;;31.30;20.60;;;;;;;;;;4996781;28;20440;-52
2022/05/26 02:10:38;;;;;;;31.60;21.35;;;;;;;;;;5002838;28;20032;-54
2022/05/26 02:13:11;;;;;;;31.10;21.40;;;;;;;;;;4996210;28;20022;-56
2022/05/26 02:15:44;;;;;;;30.35;20.67;;;;;;;;;;5003259;28;20057;-57
2022/05/26 02:18:15;;;;;;;34.67;22.25;;;;;;;;;;5012334;28;20587;-55
2022/05/26 02:20:47;;;;;;;31.67;20.40;;;;;;;;;;5002002;28;20025;-53
2022/05/26 02:23:13;;;;;;;31.50;20.90;;;;;;;;;;5001215;28;20030;-54
2022/05/26 02:25:38;;;;;;;29.52;20.08;;;;;;;;;;5002265;28;20045;-55
2022/05/26 02:28:04;;;;;;;28.75;19.60;;;;;;;;;;5016520;28;20421;-54
2022/05/26 02:30:30;;;;;;;30.08;20.38;;;;;;;;;;5001514;28;20553;-53
2022/05/26 02:32:55;;;;;;;28.65;20.10;;;;;;;;;;5013277;28;20037;-55
2022/05/26 02:35:24;;;;;;;28.52;19.50;;;;;;;;;;5019276;28;20026;-53
2022/05/26 02:37:49;;;;;;;31.98;19.95;;;;;;;;;;4986184;28;20034;-53
2022/05/26 02:40:15;;;;;;;31.40;19.83;;;;;;;;;;4986920;28;20524;-54
2022/05/26 02:42:44;;;;;;;32.17;19.65;;;;;;;;;;5017030;28;20689;-53
2022/05/26 02:45:09;;;;;;;31.65;19.77;;;;;;;;;;5008995;28;20159;-54
2022/05/26 02:47:37;;;;;;;28.15;19.15;;;;;;;;;;5014345;28;20109;-55
2022/05/26 02:50:06;;;;;;;29.27;19.90;;;;;;;;;;5000966;28;20034;-53
2022/05/26 02:52:42;;;;;;;28.92;19.85;;;;;;;;;;5001001;28;20033;-54
2022/05/26 02:55:14;;;;;;;33.83;21.00;;;;;;;;;;5015938;28;20022;-55
2022/05/26 02:57:52;;;;;;;31.27;20.80;;;;;;;;;;4999442;28;20025;-52
2022/05/26 03:00:18;;;;;;;30.17;20.83;;;;;;;;;;5000257;28;20022;-58
2022/05/26 03:03:16;;;;;;;30.80;20.05;;;;;;;;;;5016292;28;20025;-56
2022/05/26 03:05:53;;;;;;;29.33;19.98;;;;;;;;;;4998702;28;20730;-52
2022/05/26 03:08:20;;;;;;;26.55;18.27;;;;;;;;;;5011634;28;20053;-53
2022/05/26 03:10:49;;;;;;;28.15;19.40;;;;;;;;;;5000294;28;20047;-53
2022/05/26 03:13:14;;;;;;;28.25;18.27;;;;;;;;;;5001599;28;20095;-52
2022/05/26 03:15:40;;;;;;;29.77;19.67;;;;;;;;;;4993002;28;20034;-53
2022/05/26 03:18:06;;;;;;;28.38;18.95;;;;;;;;;;4996163;28;20326;-55
2022/05/26 03:20:31;;;;;;;29.38;19.15;;;;;;;;;;4998891;28;20468;-54
2022/05/26 03:22:56;;;;;;;27.77;18.73;;;;;;;;;;5003599;28;20425;-55
2022/05/26 03:25:21;;;;;;;29.33;19.42;;;;;;;;;;5002545;28;20429;-53
2022/05/26 03:27:47;;;;;;;32.03;20.47;;;;;;;;;;4992497;28;20034;-53
2022/05/26 03:30:12;;;;;;;30.83;20.43;;;;;;;;;;5015974;28;20133;-53
2022/05/26 03:32:37;;;;;;;28.92;19.67;;;;;;;;;;4999557;28;20280;-52
2022/05/26 03:40:46;;;;;;;29.40;19.90;;;;;;;;;;5000436;28;20227;-54
2022/05/26 03:43:11;;;;;;;28.67;19.90;;;;;;;;;;5006195;28;20398;-53
2022/05/26 03:45:36;;;;;;;29.80;19.77;;;;;;;;;;4999989;28;20048;-54
2022/05/26 03:48:02;;;;;;;28.80;20.05;;;;;;;;;;5012730;28;20641;-53
2022/05/26 03:50:27;;;;;;;28.83;20.23;;;;;;;;;;4999595;28;20467;-52
2022/05/26 03:52:53;;;;;;;31.13;20.33;;;;;;;;;;4999091;28;20041;-54
2022/05/26 03:55:18;;;;;;;29.50;20.97;;;;;;;;;;5003634;28;20084;-55
2022/05/26 03:57:44;;;;;;;31.98;20.77;;;;;;;;;;5000095;28;20021;-53
2022/05/26 04:00:09;;;;;;;29.33;20.13;;;;;;;;;;5000049;28;20311;-53
2022/05/26 04:02:35;;;;;;;28.77;19.77;;;;;;;;;;5001282;28;20077;-52
2022/05/26 04:05:00;;;;;;;29.75;19.55;;;;;;;;;;4997997;28;20747;-54
2022/05/26 04:07:25;;;;;;;29.20;20.87;;;;;;;;;;5003693;28;20053;-54
2022/05/26 04:09:50;;;;;;;29.67;20.13;;;;;;;;;;4996999;28;20279;-54
2022/05/26 04:12:18;;;;;;;31.67;21.43;;;;;;;;;;4999156;28;20041;-52
2022/05/26 04:14:43;;;;;;;28.60;20.15;;;;;;;;;;5000834;28;20275;-53
2022/05/26 04:17:08;;;;;;;32.10;21.07;;;;;;;;;;4998292;28;20030;-54
2022/05/26 04:19:35;;;;;;;31.87;22.27;;;;;;;;;;4994329;28;20031;-52
2022/05/26 04:22:16;;;;;;;30.58;21.00;;;;;;;;;;5012655;28;20030;-53
2022/05/26 04:24:41;;;;;;;35.20;21.92;;;;;;;;;;4999579;28;20725;-55
2022/05/26 04:27:06;;;;;;;30.30;20.17;;;;;;;;;;5013213;28;20041;-53
2022/05/26 04:29:32;;;;;;;30.63;19.97;;;;;;;;;;4995109;28;20046;-54
2022/05/26 04:31:57;;;;;;;30.95;20.17;;;;;;;;;;4996783;28;20787;-54
2022/05/26 04:34:22;;;;;;;31.97;20.60;;;;;;;;;;4997963;28;20036;-53
2022/05/26 04:36:48;;;;;;;31.77;20.45;;;;;;;;;;4999297;28;20069;-53
2022/05/26 04:39:14;;;;;;;31.98;21.20;;;;;;;;;;4995729;28;20140;-54
2022/05/26 04:41:41;;;;;;;32.97;21.25;;;;;;;;;;4998666;28;20030;-53
2022/05/26 04:44:07;;;;;;;31.00;20.20;;;;;;;;;;5000697;28;20034;-53
2022/05/26 04:46:32;;;;;;;31.63;21.33;;;;;;;;;;4998334;28;20014;-54
2022/05/26 04:48:58;;;;;;;29.23;18.90;;;;;;;;;;4998455;28;20768;-54
2022/05/26 04:51:23;;;;;;;28.23;19.63;;;;;;;;;;4997358;28;20485;-56
2022/05/26 04:53:48;;;;;;;34.70;20.80;;;;;;;;;;4999866;28;20034;-55
2022/05/26 04:56:13;;;;;;;30.07;21.20;;;;;;;;;;4997756;28;20279;-55
2022/05/26 04:58:39;;;;;;;33.40;21.83;;;;;;;;;;4996457;28;20104;-55
2022/05/26 05:01:11;;;;;;;36.67;22.50;;;;;;;;;;4996903;28;20017;-55
2022/05/26 05:03:36;;;;;;;35.22;22.33;;;;;;;;;;5015518;28;20136;-54
2022/05/26 05:06:01;;;;;;;40.03;23.33;;;;;;;;;;4999608;28;20105;-54
2022/05/26 05:08:26;;;;;;;32.30;21.87;;;;;;;;;;5002635;28;20117;-54
2022/05/26 05:10:51;;;;;;;37.77;22.93;;;;;;;;;;4990435;28;21359;-53
2022/05/26 05:13:17;;;;;;;32.93;20.57;;;;;;;;;;4999792;28;20069;-53
2022/05/26 05:15:44;;;;;;;35.20;22.38;;;;;;;;;;5011044;28;20037;-54
2022/05/26 05:18:09;;;;;;;33.40;22.20;;;;;;;;;;4998415;28;20036;-52
2022/05/26 05:20:34;;;;;;;35.45;21.85;;;;;;;;;;4995847;28;20018;-54
2022/05/26 05:23:01;;;;;;;31.97;22.57;;;;;;;;;;4999404;28;20030;-54
2022/05/26 05:25:28;;;;;;;37.03;21.92;;;;;;;;;;5013163;28;20013;-54
2022/05/26 05:28:03;;;;;;;33.65;21.85;;;;;;;;;;4992956;28;20030;-55
2022/05/26 05:30:35;;;;;;;33.92;22.10;;;;;;;;;;5012811;28;20045;-55
2022/05/26 05:33:04;;;;;;;35.45;22.02;;;;;;;;;;4997517;28;20057;-61
2022/05/26 05:35:34;;;;;;;35.07;22.10;;;;;;;;;;5000640;28;20076;-54
2022/05/26 05:37:59;;;;;;;33.40;21.70;;;;;;;;;;5012310;28;20738;-55
2022/05/26 05:40:25;;;;;;;36.70;23.17;;;;;;;;;;5008514;28;20022;-60
2022/05/26 05:42:50;;;;;;;39.80;22.57;;;;;;;;;;4995832;28;20038;-55
2022/05/26 05:45:16;;;;;;;37.22;23.20;;;;;;;;;;5005923;28;20271;-53
2022/05/26 05:47:41;;;;;;;39.97;22.58;;;;;;;;;;5003091;28;20028;-56
2022/05/26 05:50:06;;;;;;;32.03;22.47;;;;;;;;;;4995971;28;20026;-53
2022/05/26 05:52:32;;;;;;;44.63;24.58;;;;;;;;;;4999182;28;20047;-61
2022/05/26 05:54:57;;;;;;;38.63;22.55;;;;;;;;;;5000808;28;20032;-53
2022/05/26 05:57:22;;;;;;;33.78;20.77;;;;;;;;;;5006304;28;20520;-55
2022/05/26 05:59:47;;;;;;;34.87;21.60;;;;;;;;;;5002033;28;20077;-54
2022/05/26 06:02:13;;;;;;;32.80;20.90;;;;;;;;;;4997052;28;20034;-52
2022/05/26 06:04:44;;;;;;;38.05;23.42;;;;;;;;;;4998691;28;20014;-55
2022/05/26 06:07:13;;;;;;;34.22;21.00;;;;;;;;;;5000464;28;20268;-53
2022/05/26 06:09:39;;;;;;;32.45;20.80;;;;;;;;;;5004042;28;20659;-53
2022/05/26 06:12:04;;;;;;;32.77;22.00;;;;;;;;;;5001497;28;20113;-54
2022/05/26 06:14:29;;;;;;;33.60;20.50;;;;;;;;;;5005502;28;20120;-54
2022/05/26 06:16:55;;;;;;;33.83;20.37;;;;;;;;;;5004691;28;20509;-54
2022/05/26 06:19:20;;;;;;;33.97;19.43;;;;;;;;;;4998631;28;20902;-52
2022/05/26 06:21:45;;;;;;;35.07;19.73;;;;;;;;;;4996850;28;20017;-52
2022/05/26 06:24:10;;;;;;;32.40;19.97;;;;;;;;;;5001450;28;20026;-53
2022/05/26 06:26:36;;;;;;;31.97;19.80;;;;;;;;;;4999680;28;20030;-53
2022/05/26 06:37:13;;;;;;;29.48;18.50;;;;;;;;;;4999775;28;20025;-52
2022/05/26 06:37:14;;;;;;;35.80;19.35;;;;;;;;;;5000676;28;20527;-52
2022/05/26 06:39:39;;;;;;;31.60;17.98;;;;;;;;;;5001399;28;20018;-52
2022/05/26 06:42:05;;;;;;;32.80;18.23;;;;;;;;;;5001156;28;20038;-53
2022/05/26 06:44:30;;;;;;;31.10;17.73;;;;;;;;;;5000938;28;20057;-54
2022/05/26 06:46:55;;;;;;;30.23;17.53;;;;;;;;;;4995485;28;20019;-52
2022/05/26 06:49:21;;;;;;;28.13;17.45;;;;;;;;;;4993676;28;20791;-51
2022/05/26 06:51:46;;;;;;;28.07;16.23;;;;;;;;;;5000624;28;20021;-51
2022/05/26 06:54:11;;;;;;;29.35;16.33;;;;;;;;;;4999462;28;20100;-52
2022/05/26 06:56:37;;;;;;;32.10;16.63;;;;;;;;;;4998372;28;20022;-53
2022/05/26 06:59:02;;;;;;;29.50;16.80;;;;;;;;;;5000657;28;20267;-54
2022/05/26 07:01:27;;;;;;;26.75;16.85;;;;;;;;;;4998493;28;20114;-54
2022/05/26 07:03:53;;;;;;;30.90;16.73;;;;;;;;;;5000071;28;20034;-54
2022/05/26 07:06:19;;;;;;;28.57;15.70;;;;;;;;;;4998385;28;20038;-53
2022/05/26 07:08:45;;;;;;;27.35;15.75;;;;;;;;;;5002376;28;20033;-53
2022/05/26 07:11:10;;;;;;;23.70;15.10;;;;;;;;;;4997604;28;20034;-54
2022/05/26 07:13:35;;;;;;;27.00;15.17;;;;;;;;;;5000799;28;20026;-55
2022/05/26 07:16:00;;;;;;;22.47;15.17;;;;;;;;;;5003909;28;20037;-55
2022/05/26 07:18:27;;;;;;;23.70;14.40;;;;;;;;;;5000632;28;20096;-54
2022/05/26 07:20:52;;;;;;;27.02;14.50;;;;;;;;;;4999191;28;20034;-55
2022/05/26 07:23:17;;;;;;;23.80;14.23;;;;;;;;;;5003286;28;20394;-54
2022/05/26 07:25:43;;;;;;;19.93;13.90;;;;;;;;;;5001553;28;20131;-52
2022/05/26 07:28:08;;;;;;;23.27;13.95;;;;;;;;;;5001052;28;20283;-51
2022/05/26 07:30:34;;;;;;;22.27;12.90;;;;;;;;;;5000947;28;20048;-52
2022/05/26 07:32:59;;;;;;;22.10;12.63;;;;;;;;;;4998776;28;20014;-52
2022/05/26 07:35:24;;;;;;;23.37;13.70;;;;;;;;;;5000084;28;20018;-52
2022/05/26 07:43:31;;;;;;;22.48;12.98;;;;;;;;;;4998907;28;20038;-52
2022/05/26 07:45:56;;;;;;;18.73;11.43;;;;;;;;;;4999914;28;20088;-54
2022/05/26 07:48:21;;;;;;;17.50;11.03;;;;;;;;;;5001794;28;20033;-53
2022/05/26 07:50:47;;;;;;;15.57;9.80;;;;;;;;;;4999780;28;20030;-52
2022/05/26 07:53:12;;;;;;;19.38;10.55;;;;;;;;;;4997507;28;20279;-53
2022/05/26 07:55:42;;;;;;;18.33;10.03;;;;;;;;;;4999245;28;20034;-52
2022/05/26 07:58:07;;;;;;;18.83;9.98;;;;;;;;;;4999918;28;20037;-53
2022/05/26 08:00:33;;;;;;;14.82;9.68;;;;;;;;;;5001154;28;20018;-53
2022/05/26 08:02:58;;;;;;;17.47;8.97;;;;;;;;;;4997202;28;20045;-53
2022/05/26 08:05:23;;;;;;;14.07;8.50;;;;;;;;;;4996181;28;20030;-52
2022/05/26 08:07:48;;;;;;;15.00;9.00;;;;;;;;;;5012804;28;20026;-52
2022/05/26 08:10:15;;;;;;;14.60;8.90;;;;;;;;;;5001243;28;20018;-52
2022/05/26 08:12:41;;;;;;;14.40;7.32;;;;;;;;;;4994739;28;20296;-54
2022/05/26 08:15:06;;;;;;;13.23;7.93;;;;;;;;;;4997973;28;20119;-53
2022/05/26 08:17:31;;;;;;;13.98;7.75;;;;;;;;;;5003973;28;20139;-55
2022/05/26 08:19:56;;;;;;;12.53;6.97;;;;;;;;;;5000915;28;20030;-52
2022/05/26 08:22:22;;;;;;;14.63;6.10;;;;;;;;;;4994895;28;20036;-54
2022/05/26 08:24:54;;;;;;;11.40;7.30;;;;;;;;;;4999462;28;20308;-54
2022/05/26 08:27:19;;;;;;;14.07;7.47;;;;;;;;;;4999219;28;20014;-52
2022/05/26 08:29:44;;;;;;;15.70;7.28;;;;;;;;;;4998317;28;20099;-52
2022/05/26 08:32:10;;;;;;;12.03;6.70;;;;;;;;;;4997932;28;20104;-52
2022/05/26 08:34:35;;;;;;;14.03;6.63;;;;;;;;;;4997776;28;20253;-52
2022/05/26 08:37:03;;;;;;;12.83;6.10;;;;;;;;;;5002531;28;20022;-53
2022/05/26 08:39:30;;;;;;;13.57;6.63;;;;;;;;;;4997014;28;20017;-52
2022/05/26 08:41:55;;;;;;;12.80;7.05;;;;;;;;;;4998749;28;20025;-52
2022/05/26 08:44:23;;;;;;;11.17;5.47;;;;;;;;;;4996812;28;20028;-52
2022/05/26 08:46:50;;;;;;;10.45;5.95;;;;;;;;;;5000029;28;20022;-51
2022/05/26 08:49:35;;;;;;;11.75;6.85;;;;;;;;;;5012892;28;20483;-51
2022/05/26 08:52:03;;;;;;;9.30;5.53;;;;;;;;;;5000090;28;20052;-52
2022/05/26 08:54:37;;;;;;;9.23;5.10;;;;;;;;;;5017808;28;20632;-51
2022/05/26 08:57:02;;;;;;;11.20;5.72;;;;;;;;;;5012980;28;20018;-51
2022/05/26 08:59:31;;;;;;;9.73;5.57;;;;;;;;;;5000595;28;20045;-55
2022/05/26 09:01:57;;;;;;;10.88;5.25;;;;;;;;;;5001549;28;20137;-54
2022/05/26 09:04:22;;;;;;;13.02;5.97;;;;;;;;;;4998802;28;20112;-52
2022/05/26 09:15:04;;;;;;;9.27;5.22;;;;;;;;;;5010528;28;20234;-51
2022/05/26 09:17:30;;;;;;;10.23;4.82;;;;;;;;;;4997107;28;20113;-52
2022/05/26 09:19:56;;;;;;;9.65;5.07;;;;;;;;;;5000094;28;20121;-54
2022/05/26 09:22:40;;;;;;;8.05;4.63;;;;;;;;;;4999692;28;20037;-53
2022/05/26 09:25:09;;;;;;;9.48;4.97;;;;;;;;;;5002990;28;20854;-52
2022/05/26 09:27:36;;;;;;;9.43;4.60;;;;;;;;;;5002876;28;20022;-53
2022/05/26 09:30:20;;;;;;;9.50;4.63;;;;;;;;;;4999466;28;20748;-53
2022/05/26 09:32:45;;;;;;;11.05;4.95;;;;;;;;;;5001056;28;20101;-52
2022/05/26 09:35:12;;;;;;;7.63;4.10;;;;;;;;;;5001647;28;20124;-52
2022/05/26 09:37:38;;;;;;;8.88;4.30;;;;;;;;;;5005600;28;20113;-51
2022/05/26 09:40:11;;;;;;;8.77;4.63;;;;;;;;;;5005552;28;20715;-52
2022/05/26 09:42:36;;;;;;;9.40;4.75;;;;;;;;;;4995264;28;20056;-52
2022/05/26 09:45:12;;;;;;;6.23;3.87;;;;;;;;;;5019005;28;20489;-52
2022/05/26 09:47:38;;;;;;;7.95;4.38;;;;;;;;;;5015875;28;20460;-52
2022/05/26 09:50:07;;;;;;;9.07;3.77;;;;;;;;;;5003607;28;20034;-53
2022/05/26 09:52:40;;;;;;;8.15;3.65;;;;;;;;;;5002977;28;20061;-52
2022/05/26 09:55:05;;;;;;;6.80;3.60;;;;;;;;;;5002817;28;20065;-55
2022/05/26 09:57:31;;;;;;;5.32;3.13;;;;;;;;;;5004289;28;20453;-51
2022/05/26 09:59:56;;;;;;;8.10;4.00;;;;;;;;;;5002315;28;20159;-51
2022/05/26 10:02:23;;;;;;;6.77;3.27;;;;;;;;;;5016267;28;20038;-52
2022/05/26 10:04:48;;;;;;;5.88;3.88;;;;;;;;;;5002862;28;20026;-52
2022/05/26 10:07:20;;;;;;;7.90;3.63;;;;;;;;;;5003051;28;20026;-52
2022/05/26 10:10:08;;;;;;;9.13;3.58;;;;;;;;;;5003604;28;20265;-52
2022/05/26 10:12:37;;;;;;;4.53;3.17;;;;;;;;;;5000998;28;20054;-53
2022/05/26 10:15:03;;;;;;;6.53;3.72;;;;;;;;;;5016445;28;20473;-52
2022/05/26 10:17:37;;;;;;;7.53;3.40;;;;;;;;;;5004330;28;20018;-52
2022/05/26 10:20:10;;;;;;;5.80;3.13;;;;;;;;;;5001271;28;20168;-51
2022/05/26 10:22:47;;;;;;;5.40;2.95;;;;;;;;;;4991915;28;20030;-52
2022/05/26 10:25:24;;;;;;;8.75;3.85;;;;;;;;;;5000941;28;20022;-52
2022/05/26 10:28:08;;;;;;;6.63;3.33;;;;;;;;;;4999722;28;20028;-52
2022/05/26 10:30:52;;;;;;;5.00;3.10;;;;;;;;;;5003493;28;20449;-52
2022/05/26 10:33:20;;;;;;;10.20;3.53;;;;;;;;;;5004611;28;20022;-52
2022/05/26 10:35:51;;;;;;;7.47;2.75;;;;;;;;;;5002459;28;20018;-52
2022/05/26 10:38:20;;;;;;;6.40;2.90;;;;;;;;;;5016892;28;20015;-51
2022/05/26 10:40:55;;;;;;;5.63;2.60;;;;;;;;;;5003056;28;20048;-53
2022/05/26 10:43:43;;;;;;;6.13;2.92;;;;;;;;;;5016535;28;20440;-51
2022/05/26 10:46:09;;;;;;;7.43;2.95;;;;;;;;;;5018299;28;20097;-52
2022/05/26 10:48:38;;;;;;;10.82;2.95;;;;;;;;;;5001302;28;20537;-52
2022/05/26 10:51:10;;;;;;;7.50;2.97;;;;;;;;;;4999994;28;20033;-51
2022/05/26 10:53:41;;;;;;;4.07;2.40;;;;;;;;;;5012961;28;20029;-52
2022/05/26 10:56:18;;;;;;;6.05;2.50;;;;;;;;;;5013312;28;20548;-52
2022/05/26 10:58:47;;;;;;;6.00;2.47;;;;;;;;;;4999769;28;20029;-52
2022/05/26 11:01:20;;;;;;;6.93;2.50;;;;;;;;;;5012375;28;20117;-51
2022/05/26 11:03:46;;;;;;;8.13;2.60;;;;;;;;;;4996007;28;20038;-52
2022/05/26 11:06:12;;;;;;;7.57;2.55;;;;;;;;;;4998888;28;20037;-53
2022/05/26 11:08:48;;;;;;;6.00;2.40;;;;;;;;;;4997985;28;20049;-53
2022/05/26 11:11:18;;;;;;;8.00;2.80;;;;;;;;;;4995521;28;20643;-52
2022/05/26 11:13:43;;;;;;;;;;;;;;;;;;4986798;28;20049;-53
2022/05/26 11:18:59;;;;;;;7.63;2.50;;;;;;;;;;5004068;28;20048;-52
2022/05/26 11:21:24;;;;;;;10.30;3.10;;;;;;;;;;5034897;28;20029;-53
2022/05/26 11:23:49;;;;;;;6.90;2.97;;;;;;;;;;4999897;28;20037;-52
2022/05/26 11:26:17;;;;;;;6.07;2.57;;;;;;;;;;5000440;28;20021;-52
2022/05/26 11:29:12;;;;;;;5.75;2.55;;;;;;;;;;4998133;28;20420;-54
2022/05/26 11:37:40;;;;;;;9.32;2.70;;;;;;;;;;5002462;28;20087;-54
2022/05/26 11:40:09;;;;;;;8.15;2.95;;;;;;;;;;5000883;28;20028;-52
2022/05/26 11:42:47;;;;;;;5.97;2.90;;;;;;;;;;5001370;28;20479;-55
2022/05/26 11:45:21;;;;;;;7.03;3.38;;;;;;;;;;5001172;28;20040;-52
2022/05/26 11:47:47;;;;;;;4.80;2.60;;;;;;;;;;4997417;28;20022;-54
2022/05/26 11:50:51;;;;;;;5.15;2.65;;;;;;;;;;5001068;28;20029;-57
2022/05/26 11:53:28;;;;;;;9.18;2.92;;;;;;;;;;5000529;28;20128;-60
2022/05/26 11:56:03;;;;;;;7.72;3.15;;;;;;;;;;4997848;28;20405;-52
2022/05/26 11:58:33;;;;;;;5.35;2.83;;;;;;;;;;5000038;28;20021;-51
2022/05/26 12:00:58;;;;;;;;;;;;;;;;;;5016939;28;20386;-54
2022/05/26 12:03:23;;;;;;;9.27;3.08;;;;;;;;;;5002010;28;19920;-52
2022/05/26 12:06:09;;;;;;;5.57;2.43;;;;;;;;;;4983526;28;20102;-51
2022/05/26 12:08:34;;;;;;;8.35;2.70;;;;;;;;;;4985918;28;20038;-53
2022/05/26 12:11:00;;;;;;;6.77;2.67;;;;;;;;;;4991692;28;20034;-55
2022/05/26 12:13:25;;;;;;;4.40;2.50;;;;;;;;;;5003322;28;20037;-52
2022/05/26 12:16:03;;;;;;;8.57;3.03;;;;;;;;;;5002354;28;20018;-55
2022/05/26 12:18:47;;;;;;;6.07;2.60;;;;;;;;;;5001766;28;20068;-55
2022/05/26 12:21:17;;;;;;;5.80;2.90;;;;;;;;;;4995477;28;20509;-51
2022/05/26 12:23:42;;;;;;;6.82;3.08;;;;;;;;;;4994910;28;20037;-52
2022/05/26 12:26:26;;;;;;;8.00;2.88;;;;;;;;;;5016688;28;20029;-51
2022/05/26 12:28:51;;;;;;;6.25;3.05;;;;;;;;;;4998942;28;20073;-52
2022/05/26 12:31:16;;;;;;;5.43;2.63;;;;;;;;;;4995354;28;20103;-52
2022/05/26 12:33:49;;;;;;;7.07;2.63;;;;;;;;;;4999211;28;20427;-52
2022/05/26 12:36:20;;;;;;;6.18;2.58;;;;;;;;;;4990063;28;20376;-53
2022/05/26 12:38:59;;;;;;;5.30;2.90;;;;;;;;;;4998892;28;20026;-53
2022/05/26 12:41:24;;;;;;;;;;;;;;;;;;4997225;28;20032;-52
2022/05/26 12:44:02;;;;;;;6.88;2.65;;;;;;;;;;4998548;28;19921;-52
2022/05/26 12:46:33;;;;;;;5.10;2.83;;;;;;;;;;4996083;28;20485;-52
2022/05/26 12:49:04;;;;;;;5.43;2.88;;;;;;;;;;5001990;28;20037;-54
2022/05/26 12:51:33;;;;;;;4.90;2.50;;;;;;;;;;4984770;28;20355;-53
2022/05/26 12:53:59;;;;;;;12.30;3.17;;;;;;;;;;5000820;28;20104;-54
2022/05/26 12:56:37;;;;;;;6.93;2.90;;;;;;;;;;5015873;28;20157;-53
2022/05/26 12:59:02;;;;;;;8.35;3.50;;;;;;;;;;5014779;28;20268;-53
2022/05/26 13:01:28;;;;;;;6.55;3.30;;;;;;;;;;4998344;28;20489;-53
2022/05/26 13:04:09;;;;;;;6.87;3.17;;;;;;;;;;4985699;28;20572;-58
2022/05/26 13:06:39;;;;;;;7.70;3.67;;;;;;;;;;4993653;28;20304;-55
2022/05/26 13:09:06;;;;;;;7.38;3.22;;;;;;;;;;4995939;28;20113;-53
2022/05/26 13:11:33;;;;;;;7.38;3.50;;;;;;;;;;5014291;28;20074;-53
2022/05/26 13:13:59;;;;;;;6.78;3.80;;;;;;;;;;5002205;28;20033;-53
2022/05/26 13:16:33;;;;;;;7.90;3.60;;;;;;;;;;5003699;28;20022;-54
2022/05/26 13:19:13;;;;;;;9.50;3.13;;;;;;;;;;5001302;28;20021;-54
2022/05/26 13:21:38;;;;;;;8.93;4.78;;;;;;;;;;4996662;28;20525;-51
2022/05/26 13:24:04;;;;;;;5.40;3.38;;;;;;;;;;4998155;28;20030;-55
2022/05/26 13:26:29;;;;;;;7.25;3.28;;;;;;;;;;4996399;28;20018;-53
2022/05/26 13:28:56;;;;;;;6.90;3.25;;;;;;;;;;4994937;28;20042;-54
2022/05/26 13:34:06;;;;;;;9.30;3.50;;;;;;;;;;4996483;28;20033;-56
2022/05/26 13:36:35;;;;;;;7.28;3.83;;;;;;;;;;4994056;28;20034;-54
2022/05/26 13:39:04;;;;;;;5.47;3.30;;;;;;;;;;4995526;28;20564;-52
2022/05/26 13:41:29;;;;;;;8.18;3.70;;;;;;;;;;4995058;28;20032;-52
2022/05/26 13:43:55;;;;;;;8.93;3.70;;;;;;;;;;4990398;28;20034;-52
2022/05/26 13:46:25;;;;;;;7.88;3.47;;;;;;;;;;5028195;28;20022;-53
2022/05/26 13:48:54;;;;;;;6.32;3.40;;;;;;;;;;4993204;28;20053;-54
2022/05/26 13:51:23;;;;;;;5.20;3.33;;;;;;;;;;4996525;28;20567;-54
2022/05/26 13:53:49;;;;;;;6.43;3.55;;;;;;;;;;4990845;28;20026;-52
2022/05/26 13:56:17;;;;;;;6.93;3.60;;;;;;;;;;4992057;28;20056;-52
2022/05/26 13:58:43;;;;;;;6.95;3.55;;;;;;;;;;4998730;28;20381;-55
2022/05/26 14:01:09;;;;;;;7.35;4.22;;;;;;;;;;4996249;28;20582;-53
2022/05/26 14:03:35;;;;;;;5.88;3.67;;;;;;;;;;4998206;28;20032;-53
2022/05/26 14:06:05;;;;;;;7.95;3.70;;;;;;;;;;5000740;28;20032;-53
2022/05/26 14:08:30;;;;;;;;;;;;;;;;;;4999226;28;20026;-57
2022/05/26 14:10:56;;;;;;;5.88;3.72;;;;;;;;;;4996569;28;20016;-53
2022/05/26 14:13:21;;;;;;;7.00;3.60;;;;;;;;;;4995484;28;20053;-53
2022/05/26 14:15:47;;;;;;;8.35;4.03;;;;;;;;;;4992838;28;20504;-53
2022/05/26 14:18:22;;;;;;;7.70;4.07;;;;;;;;;;4997104;28;20875;-54
2022/05/26 14:21:14;;;;;;;6.68;3.60;;;;;;;;;;4995177;28;20072;-54
2022/05/26 14:23:46;;;;;;;7.85;3.75;;;;;;;;;;5000278;28;20042;-54
2022/05/26 14:26:23;;;;;;;5.93;3.97;;;;;;;;;;4997192;28;20025;-53
2022/05/26 14:28:49;;;;;;;6.72;3.90;;;;;;;;;;5015356;28;20133;-53
2022/05/26 14:31:18;;;;;;;5.80;4.43;;;;;;;;;;5014233;28;20507;-55
2022/05/26 14:33:54;;;;;;;6.07;3.50;;;;;;;;;;5001771;28;20010;-53
2022/05/26 14:36:20;;;;;;;8.43;4.70;;;;;;;;;;5001459;28;20480;-53
2022/05/26 14:38:45;;;;;;;8.73;5.03;;;;;;;;;;5000579;28;20018;-53
2022/05/26 14:41:10;;;;;;;9.93;4.90;;;;;;;;;;4995197;28;20030;-53
2022/05/26 14:43:36;;;;;;;6.18;4.50;;;;;;;;;;5001475;28;20043;-53
2022/05/26 14:46:01;;;;;;;8.27;4.85;;;;;;;;;;5017102;28;20243;-54
2022/05/26 14:48:26;;;;;;;7.97;4.90;;;;;;;;;;5000489;28;20675;-54
2022/05/26 14:50:51;;;;;;;9.17;4.53;;;;;;;;;;4999423;28;20021;-53
2022/05/26 14:55:26;;;;;;;8.07;5.33;;;;;;;;;;5002862;28;20288;-51
2022/05/26 14:56:02;;;;;;;6.68;4.22;;;;;;;;;;4999561;28;20579;-53
2022/05/26 14:58:27;;;;;;;7.07;4.63;;;;;;;;;;5015320;28;20030;-54
2022/05/26 15:00:53;;;;;;;8.73;4.80;;;;;;;;;;4996413;28;20022;-53
2022/05/26 15:03:21;;;;;;;8.35;5.25;;;;;;;;;;5000593;28;20412;-53
2022/05/26 15:05:46;;;;;;;7.50;4.80;;;;;;;;;;4999858;28;20093;-55
2022/05/26 15:08:13;;;;;;;7.57;5.30;;;;;;;;;;4999673;28;20014;-52
2022/05/26 15:10:38;;;;;;;7.00;5.20;;;;;;;;;;5001050;28;20419;-52
2022/05/26 15:13:04;;;;;;;9.07;4.70;;;;;;;;;;4999287;28;20616;-54